sensor_id;sensor_type;location;lat;lon;timestamp;pressure;altitude;pressure_sealevel;temperature;humidity
19005;BME280;9635;52.078;8.648;2023-06-19T00:00:11;99823.47;;;22.98;43.01
19005;BME280;9635;52.078;8.648;2023-06-19T00:05:20;99819.28;;;22.96;43.13
19005;BME280;9635;52.078;8.648;2023-06-19T00:10:24;99813.56;;;22.97;42.69
19005;BME280;9635;52.078;8.648;2023-06-19T00:15:28;99801.56;;;22.98;42.43
19005;BME280;9635;52.078;8.648;2023-06-19T00:20:32;99809.41;;;22.88;43.07
19005;BME280;9635;52.078;8.648;2023-06-19T00:25:36;99804.81;;;22.82;42.97
19005;BME280;9635;52.078;8.648;2023-06-19T00:30:39;99803.84;;;22.63;43.59
19005;BME280;9635;52.078;8.648;2023-06-19T00:35:44;99800.88;;;22.65;43.61
19005;BME280;9635;52.078;8.648;2023-06-19T00:40:47;99785.94;;;22.67;43.44
19005;BME280;9635;52.078;8.648;2023-06-19T00:45:49;99789.91;;;22.71;43.41
19005;BME280;9635;52.078;8.648;2023-06-19T00:50:54;99788.28;;;22.64;43.70
19005;BME280;9635;52.078;8.648;2023-06-19T00:55:59;99785.28;;;22.65;43.41
19005;BME280;9635;52.078;8.648;2023-06-19T01:01:02;99775.81;;;22.68;43.79
19005;BME280;9635;52.078;8.648;2023-06-19T01:06:15;99769.31;;;22.62;43.67
19005;BME280;9635;52.078;8.648;2023-06-19T01:11:25;99738.44;;;22.55;44.12
19005;BME280;9635;52.078;8.648;2023-06-19T01:16:31;99733.41;;;22.39;43.90
19005;BME280;9635;52.078;8.648;2023-06-19T01:21:37;99728.19;;;22.30;43.38
19005;BME280;9635;52.078;8.648;2023-06-19T01:26:42;99725.66;;;22.29;43.85
19005;BME280;9635;52.078;8.648;2023-06-19T01:31:51;99727.59;;;22.22;44.12
19005;BME280;9635;52.078;8.648;2023-06-19T01:36:58;99744.25;;;22.14;44.24
19005;BME280;9635;52.078;8.648;2023-06-19T01:42:04;99749.50;;;22.15;43.80
19005;BME280;9635;52.078;8.648;2023-06-19T01:47:09;99748.22;;;22.24;44.18
19005;BME280;9635;52.078;8.648;2023-06-19T01:52:13;99743.78;;;22.23;43.62
19005;BME280;9635;52.078;8.648;2023-06-19T01:57:17;99747.78;;;22.21;43.90
19005;BME280;9635;52.078;8.648;2023-06-19T02:02:21;99746.13;;;22.20;43.40
19005;BME280;9635;52.078;8.648;2023-06-19T02:07:24;99742.13;;;22.22;43.82
19005;BME280;9635;52.078;8.648;2023-06-19T02:12:28;99744.84;;;22.22;43.75
19005;BME280;9635;52.078;8.648;2023-06-19T02:17:31;99734.31;;;22.26;43.79
19005;BME280;9635;52.078;8.648;2023-06-19T02:22:35;99741.50;;;22.20;43.75
19005;BME280;9635;52.078;8.648;2023-06-19T02:27:39;99744.03;;;22.15;43.95
19005;BME280;9635;52.078;8.648;2023-06-19T02:32:42;99736.06;;;22.07;44.45
19005;BME280;9635;52.078;8.648;2023-06-19T02:37:46;99744.06;;;22.08;44.22
19005;BME280;9635;52.078;8.648;2023-06-19T02:42:50;99737.75;;;22.08;44.73
19005;BME280;9635;52.078;8.648;2023-06-19T02:47:53;99737.13;;;22.06;44.60
19005;BME280;9635;52.078;8.648;2023-06-19T02:52:56;99741.38;;;21.95;44.40
19005;BME280;9635;52.078;8.648;2023-06-19T02:58:00;99737.56;;;21.96;44.47
19005;BME280;9635;52.078;8.648;2023-06-19T03:03:03;99739.47;;;21.96;44.78
19005;BME280;9635;52.078;8.648;2023-06-19T03:08:06;99731.91;;;21.98;44.99
19005;BME280;9635;52.078;8.648;2023-06-19T03:13:12;99724.13;;;21.95;44.87
19005;BME280;9635;52.078;8.648;2023-06-19T03:18:16;99740.53;;;21.95;45.17
19005;BME280;9635;52.078;8.648;2023-06-19T03:23:19;99732.09;;;21.96;45.21
19005;BME280;9635;52.078;8.648;2023-06-19T03:28:23;99733.34;;;21.94;45.65
19005;BME280;9635;52.078;8.648;2023-06-19T03:33:27;99737.78;;;21.95;45.66
19005;BME280;9635;52.078;8.648;2023-06-19T03:38:30;99749.56;;;21.88;45.81
19005;BME280;9635;52.078;8.648;2023-06-19T03:43:35;99744.56;;;21.79;45.99
19005;BME280;9635;52.078;8.648;2023-06-19T03:48:38;99748.31;;;21.58;46.27
19005;BME280;9635;52.078;8.648;2023-06-19T03:53:41;99758.44;;;21.57;46.30
19005;BME280;9635;52.078;8.648;2023-06-19T03:58:46;99756.53;;;21.51;46.18
19005;BME280;9635;52.078;8.648;2023-06-19T04:03:49;99761.19;;;21.51;46.53
19005;BME280;9635;52.078;8.648;2023-06-19T04:08:51;99769.56;;;21.62;46.49
19005;BME280;9635;52.078;8.648;2023-06-19T04:13:56;99762.41;;;21.75;46.64
19005;BME280;9635;52.078;8.648;2023-06-19T04:18:59;99760.31;;;21.90;46.36
19005;BME280;9635;52.078;8.648;2023-06-19T04:24:04;99764.28;;;22.01;45.80
19005;BME280;9635;52.078;8.648;2023-06-19T04:29:11;99771.22;;;22.03;46.10
19005;BME280;9635;52.078;8.648;2023-06-19T04:34:18;99786.31;;;22.13;46.27
19005;BME280;9635;52.078;8.648;2023-06-19T04:39:22;99778.34;;;22.11;46.74
19005;BME280;9635;52.078;8.648;2023-06-19T04:44:26;99775.97;;;22.21;46.57
19005;BME280;9635;52.078;8.648;2023-06-19T04:49:35;99776.19;;;22.26;46.89
19005;BME280;9635;52.078;8.648;2023-06-19T04:54:38;99787.72;;;22.42;46.32
19005;BME280;9635;52.078;8.648;2023-06-19T04:59:43;99788.75;;;22.47;45.97
19005;BME280;9635;52.078;8.648;2023-06-19T05:04:46;99790.44;;;22.48;45.92
19005;BME280;9635;52.078;8.648;2023-06-19T05:09:50;99788.97;;;22.39;46.44
19005;BME280;9635;52.078;8.648;2023-06-19T05:14:54;99790.69;;;22.27;46.40
19005;BME280;9635;52.078;8.648;2023-06-19T05:19:57;99803.13;;;22.23;46.54
19005;BME280;9635;52.078;8.648;2023-06-19T05:24:59;99823.34;;;22.15;46.59
19005;BME280;9635;52.078;8.648;2023-06-19T05:30:05;99845.66;;;22.12;47.00
19005;BME280;9635;52.078;8.648;2023-06-19T05:35:08;99843.53;;;22.07;47.73
19005;BME280;9635;52.078;8.648;2023-06-19T05:40:14;99839.34;;;22.05;48.07
19005;BME280;9635;52.078;8.648;2023-06-19T05:45:18;99838.75;;;21.89;48.75
19005;BME280;9635;52.078;8.648;2023-06-19T05:50:22;99844.44;;;21.95;49.46
19005;BME280;9635;52.078;8.648;2023-06-19T05:55:25;99863.31;;;21.50;50.82
19005;BME280;9635;52.078;8.648;2023-06-19T06:00:30;99860.59;;;21.83;51.15
19005;BME280;9635;52.078;8.648;2023-06-19T06:05:33;99862.94;;;21.79;51.71
19005;BME280;9635;52.078;8.648;2023-06-19T06:10:38;99866.50;;;22.00;52.74
19005;BME280;9635;52.078;8.648;2023-06-19T06:15:42;99873.03;;;22.05;52.77
19005;BME280;9635;52.078;8.648;2023-06-19T06:20:45;99878.22;;;22.27;52.96
19005;BME280;9635;52.078;8.648;2023-06-19T06:25:48;99885.84;;;21.85;53.37
19005;BME280;9635;52.078;8.648;2023-06-19T06:30:53;99897.00;;;21.90;53.94
19005;BME280;9635;52.078;8.648;2023-06-19T06:35:57;99895.72;;;22.06;53.86
19005;BME280;9635;52.078;8.648;2023-06-19T06:41:00;99887.06;;;22.29;53.36
19005;BME280;9635;52.078;8.648;2023-06-19T06:46:05;99911.69;;;22.16;53.85
19005;BME280;9635;52.078;8.648;2023-06-19T06:51:08;99923.09;;;22.06;54.16
19005;BME280;9635;52.078;8.648;2023-06-19T06:56:12;99924.31;;;22.30;53.73
19005;BME280;9635;52.078;8.648;2023-06-19T07:01:16;99927.28;;;22.15;54.92
19005;BME280;9635;52.078;8.648;2023-06-19T07:06:19;99933.13;;;22.32;53.98
19005;BME280;9635;52.078;8.648;2023-06-19T07:11:22;99914.03;;;22.12;55.18
19005;BME280;9635;52.078;8.648;2023-06-19T07:16:26;99929.75;;;22.57;53.62
19005;BME280;9635;52.078;8.648;2023-06-19T07:21:30;99921.25;;;23.36;53.47
19005;BME280;9635;52.078;8.648;2023-06-19T07:26:33;99921.78;;;24.59;49.79
19005;BME280;9635;52.078;8.648;2023-06-19T07:31:38;99935.13;;;24.55;48.87
19005;BME280;9635;52.078;8.648;2023-06-19T07:36:41;99952.59;;;24.79;49.12
19005;BME280;9635;52.078;8.648;2023-06-19T07:41:44;99926.97;;;24.67;48.49
19005;BME280;9635;52.078;8.648;2023-06-19T07:46:48;99942.69;;;25.75;46.46
19005;BME280;9635;52.078;8.648;2023-06-19T07:51:51;99944.00;;;25.12;47.40
19005;BME280;9635;52.078;8.648;2023-06-19T07:56:54;99953.75;;;24.03;48.39
19005;BME280;9635;52.078;8.648;2023-06-19T08:01:59;99952.38;;;22.97;51.50
19005;BME280;9635;52.078;8.648;2023-06-19T08:07:02;99948.50;;;23.31;51.20
19005;BME280;9635;52.078;8.648;2023-06-19T08:12:05;99970.44;;;23.25;51.16
19005;BME280;9635;52.078;8.648;2023-06-19T08:17:10;99970.00;;;23.28;52.60
19005;BME280;9635;52.078;8.648;2023-06-19T08:22:13;99972.72;;;23.73;50.95
19005;BME280;9635;52.078;8.648;2023-06-19T08:27:16;99970.69;;;23.55;50.97
19005;BME280;9635;52.078;8.648;2023-06-19T08:32:20;99980.94;;;23.73;50.50
19005;BME280;9635;52.078;8.648;2023-06-19T08:37:23;99986.31;;;23.93;50.59
19005;BME280;9635;52.078;8.648;2023-06-19T08:42:26;99981.94;;;23.85;50.85
19005;BME280;9635;52.078;8.648;2023-06-19T08:47:31;100004.69;;;23.85;50.73
19005;BME280;9635;52.078;8.648;2023-06-19T08:52:35;100008.38;;;23.21;51.41
19005;BME280;9635;52.078;8.648;2023-06-19T08:57:39;100003.22;;;23.90;50.17
19005;BME280;9635;52.078;8.648;2023-06-19T09:02:45;100007.72;;;23.71;49.48
19005;BME280;9635;52.078;8.648;2023-06-19T09:08:05;100016.41;;;23.09;50.76
19005;BME280;9635;52.078;8.648;2023-06-19T09:13:11;100013.19;;;23.32;50.35
19005;BME280;9635;52.078;8.648;2023-06-19T09:18:15;100029.03;;;23.10;51.64
19005;BME280;9635;52.078;8.648;2023-06-19T09:23:18;100028.59;;;23.20;50.94
19005;BME280;9635;52.078;8.648;2023-06-19T09:28:25;100030.59;;;23.51;50.45
19005;BME280;9635;52.078;8.648;2023-06-19T09:33:30;100033.78;;;23.48;49.36
19005;BME280;9635;52.078;8.648;2023-06-19T09:38:35;100031.69;;;23.88;48.92
19005;BME280;9635;52.078;8.648;2023-06-19T09:43:43;100041.69;;;23.11;50.23
19005;BME280;9635;52.078;8.648;2023-06-19T09:48:53;100047.69;;;23.47;50.31
19005;BME280;9635;52.078;8.648;2023-06-19T09:54:00;100041.25;;;24.11;49.88
19005;BME280;9635;52.078;8.648;2023-06-19T09:59:06;100043.75;;;24.69;47.00
19005;BME280;9635;52.078;8.648;2023-06-19T10:04:13;100043.03;;;24.24;49.45
19005;BME280;9635;52.078;8.648;2023-06-19T10:09:16;100053.94;;;23.60;50.05
19005;BME280;9635;52.078;8.648;2023-06-19T10:14:20;100067.66;;;23.60;49.84
19005;BME280;9635;52.078;8.648;2023-06-19T10:19:25;100063.69;;;23.50;49.52
19005;BME280;9635;52.078;8.648;2023-06-19T10:24:28;100060.47;;;23.66;48.36
19005;BME280;9635;52.078;8.648;2023-06-19T10:29:40;100052.22;;;23.21;50.35
19005;BME280;9635;52.078;8.648;2023-06-19T10:34:50;100065.09;;;24.10;48.84
19005;BME280;9635;52.078;8.648;2023-06-19T10:39:52;100058.84;;;23.97;49.00
19005;BME280;9635;52.078;8.648;2023-06-19T10:45:01;100064.00;;;23.80;49.74
19005;BME280;9635;52.078;8.648;2023-06-19T10:50:09;100062.56;;;23.64;49.53
19005;BME280;9635;52.078;8.648;2023-06-19T10:55:13;100081.03;;;23.43;50.39
19005;BME280;9635;52.078;8.648;2023-06-19T11:00:23;100082.00;;;24.07;49.25
19005;BME280;9635;52.078;8.648;2023-06-19T11:05:28;100065.59;;;24.01;48.31
19005;BME280;9635;52.078;8.648;2023-06-19T11:10:31;100065.34;;;24.02;48.62
19005;BME280;9635;52.078;8.648;2023-06-19T11:15:34;100052.28;;;25.41;45.74
19005;BME280;9635;52.078;8.648;2023-06-19T11:20:45;100062.50;;;25.90;45.94
19005;BME280;9635;52.078;8.648;2023-06-19T11:25:49;100066.34;;;25.52;45.07
19005;BME280;9635;52.078;8.648;2023-06-19T11:30:58;100090.25;;;24.64;46.71
19005;BME280;9635;52.078;8.648;2023-06-19T11:36:03;100071.63;;;25.16;47.08
19005;BME280;9635;52.078;8.648;2023-06-19T11:41:06;100059.69;;;25.59;45.56
19005;BME280;9635;52.078;8.648;2023-06-19T11:46:10;100060.53;;;25.78;44.65
19005;BME280;9635;52.078;8.648;2023-06-19T11:51:14;100094.22;;;25.74;46.09
19005;BME280;9635;52.078;8.648;2023-06-19T11:56:18;100082.97;;;25.20;45.88
19005;BME280;9635;52.078;8.648;2023-06-19T12:01:20;100079.91;;;24.66;47.98
19005;BME280;9635;52.078;8.648;2023-06-19T12:06:25;100095.47;;;24.47;48.08
19005;BME280;9635;52.078;8.648;2023-06-19T12:11:28;100078.19;;;26.01;45.48
19005;BME280;9635;52.078;8.648;2023-06-19T12:16:31;100069.69;;;26.33;45.03
19005;BME280;9635;52.078;8.648;2023-06-19T12:21:35;100063.75;;;26.36;44.72
19005;BME280;9635;52.078;8.648;2023-06-19T12:26:42;100065.09;;;25.84;45.16
19005;BME280;9635;52.078;8.648;2023-06-19T12:31:45;100052.13;;;26.57;43.70
19005;BME280;9635;52.078;8.648;2023-06-19T12:36:49;100061.31;;;26.27;43.24
19005;BME280;9635;52.078;8.648;2023-06-19T12:41:52;100070.09;;;26.06;43.88
19005;BME280;9635;52.078;8.648;2023-06-19T12:46:55;100062.78;;;26.42;43.81
19005;BME280;9635;52.078;8.648;2023-06-19T12:52:01;100064.25;;;26.80;44.01
19005;BME280;9635;52.078;8.648;2023-06-19T12:57:05;100065.75;;;27.58;41.00
19005;BME280;9635;52.078;8.648;2023-06-19T13:02:08;100062.66;;;27.43;41.50
19005;BME280;9635;52.078;8.648;2023-06-19T13:07:17;100063.13;;;28.37;40.59
19005;BME280;9635;52.078;8.648;2023-06-19T13:12:21;100057.50;;;28.32;40.24
19005;BME280;9635;52.078;8.648;2023-06-19T13:17:25;100060.56;;;28.19;40.91
19005;BME280;9635;52.078;8.648;2023-06-19T13:22:29;100058.59;;;29.15;38.79
19005;BME280;9635;52.078;8.648;2023-06-19T13:27:32;100061.50;;;27.67;39.63
19005;BME280;9635;52.078;8.648;2023-06-19T13:32:35;100066.50;;;26.71;40.69
19005;BME280;9635;52.078;8.648;2023-06-19T13:37:40;100062.81;;;27.24;40.36
19005;BME280;9635;52.078;8.648;2023-06-19T13:42:43;100065.69;;;27.70;40.13
19005;BME280;9635;52.078;8.648;2023-06-19T13:47:46;100055.41;;;29.29;37.30
19005;BME280;9635;52.078;8.648;2023-06-19T13:52:50;100056.06;;;28.46;38.30
19005;BME280;9635;52.078;8.648;2023-06-19T13:57:53;100059.84;;;29.08;37.38
19005;BME280;9635;52.078;8.648;2023-06-19T14:02:56;100066.63;;;29.00;37.53
19005;BME280;9635;52.078;8.648;2023-06-19T14:08:01;100066.25;;;27.31;39.65
19005;BME280;9635;52.078;8.648;2023-06-19T14:13:05;100069.25;;;27.82;39.48
19005;BME280;9635;52.078;8.648;2023-06-19T14:18:08;100057.41;;;29.33;37.13
19005;BME280;9635;52.078;8.648;2023-06-19T14:23:12;100069.84;;;29.53;37.05
19005;BME280;9635;52.078;8.648;2023-06-19T14:28:15;100067.78;;;29.04;37.31
19005;BME280;9635;52.078;8.648;2023-06-19T14:33:18;100052.91;;;28.71;37.96
19005;BME280;9635;52.078;8.648;2023-06-19T14:38:22;100053.88;;;27.98;38.89
19005;BME280;9635;52.078;8.648;2023-06-19T14:43:26;100058.28;;;27.70;39.09
19005;BME280;9635;52.078;8.648;2023-06-19T14:48:33;100049.69;;;27.55;39.80
19005;BME280;9635;52.078;8.648;2023-06-19T14:53:37;100043.06;;;29.14;37.08
19005;BME280;9635;52.078;8.648;2023-06-19T14:58:40;100042.28;;;30.12;36.17
19005;BME280;9635;52.078;8.648;2023-06-19T15:03:44;100048.94;;;29.84;36.11
19005;BME280;9635;52.078;8.648;2023-06-19T15:08:48;100053.19;;;28.70;38.83
19005;BME280;9635;52.078;8.648;2023-06-19T15:13:51;100054.75;;;28.66;37.46
19005;BME280;9635;52.078;8.648;2023-06-19T15:18:54;100054.13;;;29.58;38.26
19005;BME280;9635;52.078;8.648;2023-06-19T15:23:58;100062.97;;;30.32;37.46
19005;BME280;9635;52.078;8.648;2023-06-19T15:29:01;100055.38;;;29.24;38.62
19005;BME280;9635;52.078;8.648;2023-06-19T15:34:04;100048.06;;;28.79;37.74
19005;BME280;9635;52.078;8.648;2023-06-19T15:39:09;100038.16;;;28.49;38.82
19005;BME280;9635;52.078;8.648;2023-06-19T15:44:13;100035.41;;;28.83;38.49
19005;BME280;9635;52.078;8.648;2023-06-19T15:49:16;100024.94;;;30.54;36.10
19005;BME280;9635;52.078;8.648;2023-06-19T15:54:20;100025.91;;;30.11;36.49
19005;BME280;9635;52.078;8.648;2023-06-19T15:59:24;100024.44;;;30.62;34.90
19005;BME280;9635;52.078;8.648;2023-06-19T16:04:27;100033.19;;;29.63;37.96
19005;BME280;9635;52.078;8.648;2023-06-19T16:09:31;100036.28;;;29.66;36.64
19005;BME280;9635;52.078;8.648;2023-06-19T16:14:51;100021.91;;;29.69;36.61
19005;BME280;9635;52.078;8.648;2023-06-19T16:19:54;100009.88;;;30.40;35.76
19005;BME280;9635;52.078;8.648;2023-06-19T16:24:58;100010.16;;;30.43;36.60
19005;BME280;9635;52.078;8.648;2023-06-19T16:30:01;100008.91;;;30.61;34.71
19005;BME280;9635;52.078;8.648;2023-06-19T16:35:05;99998.09;;;32.88;32.48
19005;BME280;9635;52.078;8.648;2023-06-19T16:40:10;99994.69;;;34.16;31.42
19005;BME280;9635;52.078;8.648;2023-06-19T16:45:13;100000.50;;;35.55;29.01
19005;BME280;9635;52.078;8.648;2023-06-19T16:50:17;99995.13;;;36.15;28.45
19005;BME280;9635;52.078;8.648;2023-06-19T16:55:21;99991.69;;;39.06;26.18
19005;BME280;9635;52.078;8.648;2023-06-19T17:00:26;100004.25;;;40.26;24.89
19005;BME280;9635;52.078;8.648;2023-06-19T17:05:28;99998.47;;;40.14;24.29
19005;BME280;9635;52.078;8.648;2023-06-19T17:10:33;99994.97;;;39.65;24.31
19005;BME280;9635;52.078;8.648;2023-06-19T17:15:35;100012.63;;;36.40;27.56
19005;BME280;9635;52.078;8.648;2023-06-19T17:20:38;100027.03;;;37.99;26.34
19005;BME280;9635;52.078;8.648;2023-06-19T17:25:43;100023.78;;;33.99;29.29
19005;BME280;9635;52.078;8.648;2023-06-19T17:30:47;100022.09;;;36.72;27.34
19005;BME280;9635;52.078;8.648;2023-06-19T17:35:50;100021.31;;;39.20;24.67
19005;BME280;9635;52.078;8.648;2023-06-19T17:40:54;100021.09;;;39.57;24.19
19005;BME280;9635;52.078;8.648;2023-06-19T17:45:57;100022.13;;;37.68;26.76
19005;BME280;9635;52.078;8.648;2023-06-19T17:51:00;100031.91;;;33.41;30.96
19005;BME280;9635;52.078;8.648;2023-06-19T17:56:04;100023.34;;;31.06;34.08
19005;BME280;9635;52.078;8.648;2023-06-19T18:01:07;100028.53;;;30.17;36.17
19005;BME280;9635;52.078;8.648;2023-06-19T18:06:10;100033.94;;;29.36;37.38
19005;BME280;9635;52.078;8.648;2023-06-19T18:11:14;100047.47;;;28.43;38.46
19005;BME280;9635;52.078;8.648;2023-06-19T18:16:17;100050.00;;;27.99;39.59
19005;BME280;9635;52.078;8.648;2023-06-19T18:21:20;100056.00;;;27.67;40.59
19005;BME280;9635;52.078;8.648;2023-06-19T18:26:25;100051.41;;;27.32;41.23
19005;BME280;9635;52.078;8.648;2023-06-19T18:31:28;100062.59;;;27.02;41.52
19005;BME280;9635;52.078;8.648;2023-06-19T18:36:31;100059.59;;;26.80;42.13
19005;BME280;9635;52.078;8.648;2023-06-19T18:41:35;100056.09;;;26.61;42.90
19005;BME280;9635;52.078;8.648;2023-06-19T18:46:38;100060.13;;;26.35;43.57
19005;BME280;9635;52.078;8.648;2023-06-19T18:51:41;100053.56;;;26.06;44.40
19005;BME280;9635;52.078;8.648;2023-06-19T18:56:45;100054.09;;;25.84;44.34
19005;BME280;9635;52.078;8.648;2023-06-19T19:01:48;100067.69;;;25.61;44.14
19005;BME280;9635;52.078;8.648;2023-06-19T19:06:51;100061.81;;;25.57;44.82
19005;BME280;9635;52.078;8.648;2023-06-19T19:11:55;100060.78;;;25.40;45.40
19005;BME280;9635;52.078;8.648;2023-06-19T19:16:59;100056.91;;;25.29;45.28
19005;BME280;9635;52.078;8.648;2023-06-19T19:22:03;100058.88;;;25.22;45.25
19005;BME280;9635;52.078;8.648;2023-06-19T19:27:07;100069.16;;;25.08;45.26
19005;BME280;9635;52.078;8.648;2023-06-19T19:32:10;100075.69;;;24.89;45.08
19005;BME280;9635;52.078;8.648;2023-06-19T19:37:13;100081.91;;;24.78;45.21
19005;BME280;9635;52.078;8.648;2023-06-19T19:42:17;100070.88;;;24.59;44.90
19005;BME280;9635;52.078;8.648;2023-06-19T19:47:21;100082.13;;;24.51;45.08
19005;BME280;9635;52.078;8.648;2023-06-19T19:52:24;100083.50;;;24.42;45.03
19005;BME280;9635;52.078;8.648;2023-06-19T19:57:28;100090.69;;;24.36;45.38
19005;BME280;9635;52.078;8.648;2023-06-19T20:02:31;100093.38;;;24.11;45.74
19005;BME280;9635;52.078;8.648;2023-06-19T20:07:34;100094.75;;;23.95;46.31
19005;BME280;9635;52.078;8.648;2023-06-19T20:12:38;100103.84;;;23.89;46.30
19005;BME280;9635;52.078;8.648;2023-06-19T20:17:41;100102.97;;;23.88;45.73
19005;BME280;9635;52.078;8.648;2023-06-19T20:22:44;100121.53;;;23.93;46.12
19005;BME280;9635;52.078;8.648;2023-06-19T20:27:48;100115.66;;;23.83;46.32
19005;BME280;9635;52.078;8.648;2023-06-19T20:33:08;100111.91;;;23.71;47.04
19005;BME280;9635;52.078;8.648;2023-06-19T20:38:11;100114.31;;;23.54;47.04
19005;BME280;9635;52.078;8.648;2023-06-19T20:43:15;100118.34;;;23.38;47.42
19005;BME280;9635;52.078;8.648;2023-06-19T20:48:18;100111.44;;;23.29;47.68
19005;BME280;9635;52.078;8.648;2023-06-19T20:53:21;100119.44;;;23.24;48.52
19005;BME280;9635;52.078;8.648;2023-06-19T20:58:25;100116.50;;;23.18;48.66
19005;BME280;9635;52.078;8.648;2023-06-19T21:03:29;100128.31;;;23.12;49.13
19005;BME280;9635;52.078;8.648;2023-06-19T21:08:32;100124.28;;;22.95;49.76
19005;BME280;9635;52.078;8.648;2023-06-19T21:13:37;100129.78;;;22.88;50.24
19005;BME280;9635;52.078;8.648;2023-06-19T21:18:39;100128.72;;;22.76;50.45
19005;BME280;9635;52.078;8.648;2023-06-19T21:23:42;100131.03;;;22.59;50.50
19005;BME280;9635;52.078;8.648;2023-06-19T21:28:46;100131.47;;;22.56;50.90
19005;BME280;9635;52.078;8.648;2023-06-19T21:33:49;100130.00;;;22.47;50.54
19005;BME280;9635;52.078;8.648;2023-06-19T21:38:53;100128.44;;;22.31;51.20
19005;BME280;9635;52.078;8.648;2023-06-19T21:43:57;100138.97;;;22.27;51.24
19005;BME280;9635;52.078;8.648;2023-06-19T21:49:00;100134.94;;;22.23;51.37
19005;BME280;9635;52.078;8.648;2023-06-19T21:54:05;100139.59;;;22.16;51.86
19005;BME280;9635;52.078;8.648;2023-06-19T21:59:10;100136.19;;;22.14;52.02
19005;BME280;9635;52.078;8.648;2023-06-19T22:04:13;100122.53;;;22.14;52.33
19005;BME280;9635;52.078;8.648;2023-06-19T22:09:17;100118.91;;;22.00;52.61
19005;BME280;9635;52.078;8.648;2023-06-19T22:14:21;100120.13;;;21.91;52.94
19005;BME280;9635;52.078;8.648;2023-06-19T22:19:24;100125.41;;;21.93;53.14
19005;BME280;9635;52.078;8.648;2023-06-19T22:24:27;100115.91;;;21.88;53.28
19005;BME280;9635;52.078;8.648;2023-06-19T22:29:31;100109.59;;;21.81;53.60
19005;BME280;9635;52.078;8.648;2023-06-19T22:34:35;100108.75;;;21.81;54.28
19005;BME280;9635;52.078;8.648;2023-06-19T22:39:38;100102.59;;;21.72;54.29
19005;BME280;9635;52.078;8.648;2023-06-19T22:44:42;100101.72;;;21.65;54.54
19005;BME280;9635;52.078;8.648;2023-06-19T22:49:45;100101.25;;;21.55;55.06
19005;BME280;9635;52.078;8.648;2023-06-19T22:54:48;100109.44;;;21.48;54.78
19005;BME280;9635;52.078;8.648;2023-06-19T22:59:52;100106.47;;;21.50;55.42
19005;BME280;9635;52.078;8.648;2023-06-19T23:04:55;100105.41;;;21.44;55.62
19005;BME280;9635;52.078;8.648;2023-06-19T23:09:58;100102.00;;;21.35;55.83
19005;BME280;9635;52.078;8.648;2023-06-19T23:15:03;100104.31;;;21.32;56.14
19005;BME280;9635;52.078;8.648;2023-06-19T23:20:09;100106.78;;;21.27;56.50
19005;BME280;9635;52.078;8.648;2023-06-19T23:25:13;100115.56;;;21.22;56.63
19005;BME280;9635;52.078;8.648;2023-06-19T23:30:18;100117.25;;;20.95;57.25
19005;BME280;9635;52.078;8.648;2023-06-19T23:35:21;100107.13;;;20.61;58.00
19005;BME280;9635;52.078;8.648;2023-06-19T23:40:25;100113.28;;;20.69;58.17
19005;BME280;9635;52.078;8.648;2023-06-19T23:45:30;100112.38;;;20.62;57.84
19005;BME280;9635;52.078;8.648;2023-06-19T23:50:33;100109.00;;;20.60;58.02
19005;BME280;9635;52.078;8.648;2023-06-19T23:55:36;100110.13;;;20.66;57.87
